Cove Gap, West Virginia
Current Conditions -  °F | °C
As of 10:51 AM on Friday 28 Nov 2014 (Local Time) from KHTS Reporting Station
Overcast Overcast  
Wind Chill: 22°   Ceiling: 3300
Heat Index: 29°   Visibility: 10mi
Dew Point: 18°   Wind: 7mph
Humidity: 64%   Direction: 250°WSW
Pressure: 30.4"   Gusts: NA
Location:  38.0696°N, 82.2646°W
Report Text: KHTS 281551Z AUTO 25006KT 10SM SCT029 OVC033 M02/M08 A3040 RMK AO2 SLP303 T10171078 TSNO
Loading
Personal Weather Stations






























Interactive Weather Map New forecast layout! Learn more

10-Day Weather Forecast

Advertisements
Track Severe Weather on mobile